Hampshire Downs, United Kingdom
Current Conditions -  °F | °C
As of 4:50 AM on Wednesday 26 Nov 2014 (Local Time) from EGVO Reporting Station
Drizzle Drizzle  
Wind Chill: 41°   Ceiling: 200
Heat Index: 45°   Visibility: 1.2mi
Dew Point: 45°   Wind: 6mph
Humidity: 100%   Direction: 60°ENE
Pressure: 29.88"   Gusts: NA
Location:  51.3°N, 1.2°W
Report Text: EGVO 260450Z 06005KT 2000 -DZ FEW001 OVC002 07/07 Q1012 AMB
Loading
Personal Weather Stations






























Interactive Weather Map New forecast layout! Learn more

10-Day Weather Forecast

Advertisements
Track Severe Weather on mobile